aviador You're here:

KCDW Decoded Metar

CALDWELL in NJ, USA
Report Time2017-07-22 09:53:00
UTC Time2017-07-22 10:39:30
Flight Rules vfr VFR
WindCalm
Visibility9999 m
Phenomena:N/A
Clouds:N/A
Expected CloudBase > 1,600 ft AGL from Temp-Dew spread
CeilingNone
Temp23°C (ISA +8)
Dew Point19°C (78% RH)
QNH1012 hPa
Density Alt1,512 ft
Elevation210 ft
Report Wrong Elevation
Raw Report
KCDW 220953Z AUTO 00000KT 10SM CLR 23/19 A2989 RMK AO2 SLP123
T02280194 TSNO=

Extra information for KCDW:More info

Metar Taf Metar & Taf Last 4 Metars F.Rules Stats Wind Profile Meteogram Temp Stats Airport Information Weather charts Add Link Nearby VenuesMetar ALERT Operation Metar Decoded Social comments

AIRNAV info for KCDW